sensor_id;sensor_type;location;lat;lon;timestamp;temperature;humidity
16102;DHT22;56411;52.964;10.540;2023-03-25T00:01:30;8.20;99.90
16102;DHT22;56411;52.964;10.540;2023-03-25T00:03:58;8.20;99.90
16102;DHT22;56411;52.964;10.540;2023-03-25T00:06:26;8.20;99.90
16102;DHT22;56411;52.964;10.540;2023-03-25T00:08:55;8.20;99.90
16102;DHT22;56411;52.964;10.540;2023-03-25T00:11:22;8.20;99.90
16102;DHT22;56411;52.964;10.540;2023-03-25T00:13:49;8.20;99.90
16102;DHT22;56411;52.964;10.540;2023-03-25T00:16:18;8.20;99.90
16102;DHT22;56411;52.964;10.540;2023-03-25T00:18:46;8.20;99.90
16102;DHT22;56411;52.964;10.540;2023-03-25T00:21:14;8.20;99.90
16102;DHT22;56411;52.964;10.540;2023-03-25T00:23:43;8.30;99.90
16102;DHT22;56411;52.964;10.540;2023-03-25T00:26:12;8.30;99.90
16102;DHT22;56411;52.964;10.540;2023-03-25T00:28:40;8.30;99.90
16102;DHT22;56411;52.964;10.540;2023-03-25T00:31:10;8.30;99.90
16102;DHT22;56411;52.964;10.540;2023-03-25T00:33:38;8.30;99.90
16102;DHT22;56411;52.964;10.540;2023-03-25T00:36:07;8.40;99.90
16102;DHT22;56411;52.964;10.540;2023-03-25T00:38:34;8.40;99.90
16102;DHT22;56411;52.964;10.540;2023-03-25T00:41:12;8.40;99.90
16102;DHT22;56411;52.964;10.540;2023-03-25T00:43:39;8.40;99.90
16102;DHT22;56411;52.964;10.540;2023-03-25T00:46:06;8.30;99.90
16102;DHT22;56411;52.964;10.540;2023-03-25T00:48:33;8.30;99.90
16102;DHT22;56411;52.964;10.540;2023-03-25T00:51:01;8.20;99.90
16102;DHT22;56411;52.964;10.540;2023-03-25T00:53:34;8.20;99.90
16102;DHT22;56411;52.964;10.540;2023-03-25T00:56:01;8.10;99.90
16102;DHT22;56411;52.964;10.540;2023-03-25T00:58:30;8.10;99.90
16102;DHT22;56411;52.964;10.540;2023-03-25T01:00:58;8.00;99.90
16102;DHT22;56411;52.964;10.540;2023-03-25T01:03:26;8.10;99.90
16102;DHT22;56411;52.964;10.540;2023-03-25T01:05:54;8.20;99.90
16102;DHT22;56411;52.964;10.540;2023-03-25T01:08:22;8.20;99.90
16102;DHT22;56411;52.964;10.540;2023-03-25T01:10:51;8.20;99.90
16102;DHT22;56411;52.964;10.540;2023-03-25T01:13:20;8.10;99.90
16102;DHT22;56411;52.964;10.540;2023-03-25T01:15:48;8.20;99.90
16102;DHT22;56411;52.964;10.540;2023-03-25T01:18:16;8.10;99.90
16102;DHT22;56411;52.964;10.540;2023-03-25T01:20:43;8.10;99.90
16102;DHT22;56411;52.964;10.540;2023-03-25T01:23:10;8.00;99.90
16102;DHT22;56411;52.964;10.540;2023-03-25T01:25:38;8.00;99.90
16102;DHT22;56411;52.964;10.540;2023-03-25T01:28:05;8.00;99.90
16102;DHT22;56411;52.964;10.540;2023-03-25T01:30:32;7.90;99.90
16102;DHT22;56411;52.964;10.540;2023-03-25T01:33:01;7.90;99.90
16102;DHT22;56411;52.964;10.540;2023-03-25T01:35:28;7.90;99.90
16102;DHT22;56411;52.964;10.540;2023-03-25T01:37:55;7.80;99.90
16102;DHT22;56411;52.964;10.540;2023-03-25T01:40:23;7.90;99.90
16102;DHT22;56411;52.964;10.540;2023-03-25T01:42:50;7.80;99.90
16102;DHT22;56411;52.964;10.540;2023-03-25T01:45:23;7.80;99.90
16102;DHT22;56411;52.964;10.540;2023-03-25T01:47:55;7.80;99.90
16102;DHT22;56411;52.964;10.540;2023-03-25T01:50:24;7.80;99.90
16102;DHT22;56411;52.964;10.540;2023-03-25T01:52:54;7.90;99.90
16102;DHT22;56411;52.964;10.540;2023-03-25T01:55:22;8.00;99.90
16102;DHT22;56411;52.964;10.540;2023-03-25T01:57:54;8.00;99.90
16102;DHT22;56411;52.964;10.540;2023-03-25T02:00:24;8.00;99.90
16102;DHT22;56411;52.964;10.540;2023-03-25T02:02:54;8.00;99.90
16102;DHT22;56411;52.964;10.540;2023-03-25T02:05:31;8.10;99.90
16102;DHT22;56411;52.964;10.540;2023-03-25T02:08:02;8.20;99.90
16102;DHT22;56411;52.964;10.540;2023-03-25T02:10:31;8.30;99.90
16102;DHT22;56411;52.964;10.540;2023-03-25T02:13:00;8.30;99.90
16102;DHT22;56411;52.964;10.540;2023-03-25T02:15:32;8.30;99.90
16102;DHT22;56411;52.964;10.540;2023-03-25T02:18:21;8.30;99.90
16102;DHT22;56411;52.964;10.540;2023-03-25T02:27:29;8.30;99.90
16102;DHT22;56411;52.964;10.540;2023-03-25T02:30:32;8.40;99.90
16102;DHT22;56411;52.964;10.540;2023-03-25T02:33:22;8.50;99.90
16102;DHT22;56411;52.964;10.540;2023-03-25T02:36:29;8.50;99.90
16102;DHT22;56411;52.964;10.540;2023-03-25T02:39:04;8.60;99.90
16102;DHT22;56411;52.964;10.540;2023-03-25T02:41:40;8.60;99.90
16102;DHT22;56411;52.964;10.540;2023-03-25T02:44:12;8.60;99.90
16102;DHT22;56411;52.964;10.540;2023-03-25T02:46:45;8.60;99.90
16102;DHT22;56411;52.964;10.540;2023-03-25T02:49:20;8.60;99.90
16102;DHT22;56411;52.964;10.540;2023-03-25T02:51:53;8.60;99.90
16102;DHT22;56411;52.964;10.540;2023-03-25T02:54:24;8.60;99.90
16102;DHT22;56411;52.964;10.540;2023-03-25T02:56:54;8.60;99.90
16102;DHT22;56411;52.964;10.540;2023-03-25T02:59:23;8.60;99.90
16102;DHT22;56411;52.964;10.540;2023-03-25T03:01:58;8.60;99.90
16102;DHT22;56411;52.964;10.540;2023-03-25T03:04:26;8.60;99.90
16102;DHT22;56411;52.964;10.540;2023-03-25T03:06:54;8.60;99.90
16102;DHT22;56411;52.964;10.540;2023-03-25T03:09:35;8.60;99.90
16102;DHT22;56411;52.964;10.540;2023-03-25T03:12:17;8.60;99.90
16102;DHT22;56411;52.964;10.540;2023-03-25T03:14:57;8.50;99.90
16102;DHT22;56411;52.964;10.540;2023-03-25T03:17:30;8.50;99.90
16102;DHT22;56411;52.964;10.540;2023-03-25T03:20:04;8.30;99.90
16102;DHT22;56411;52.964;10.540;2023-03-25T03:22:39;8.20;99.90
16102;DHT22;56411;52.964;10.540;2023-03-25T03:25:17;8.00;99.90
16102;DHT22;56411;52.964;10.540;2023-03-25T03:27:49;7.90;99.90
16102;DHT22;56411;52.964;10.540;2023-03-25T03:30:23;7.80;99.90
16102;DHT22;56411;52.964;10.540;2023-03-25T03:32:59;7.70;99.90
16102;DHT22;56411;52.964;10.540;2023-03-25T03:35:32;7.60;99.90
16102;DHT22;56411;52.964;10.540;2023-03-25T03:38:07;7.60;99.90
16102;DHT22;56411;52.964;10.540;2023-03-25T03:40:39;7.60;99.90
16102;DHT22;56411;52.964;10.540;2023-03-25T03:43:09;7.70;99.90
16102;DHT22;56411;52.964;10.540;2023-03-25T03:45:41;7.70;99.90
16102;DHT22;56411;52.964;10.540;2023-03-25T03:48:12;7.60;99.90
16102;DHT22;56411;52.964;10.540;2023-03-25T03:50:43;7.60;99.90
16102;DHT22;56411;52.964;10.540;2023-03-25T03:53:15;7.50;99.90
16102;DHT22;56411;52.964;10.540;2023-03-25T03:55:48;7.50;99.90
16102;DHT22;56411;52.964;10.540;2023-03-25T03:58:20;7.50;99.90
16102;DHT22;56411;52.964;10.540;2023-03-25T04:00:53;7.40;99.90
16102;DHT22;56411;52.964;10.540;2023-03-25T04:03:28;7.40;99.90
16102;DHT22;56411;52.964;10.540;2023-03-25T04:06:08;7.40;99.90
16102;DHT22;56411;52.964;10.540;2023-03-25T04:08:43;7.40;99.90
16102;DHT22;56411;52.964;10.540;2023-03-25T04:11:18;7.30;99.90
16102;DHT22;56411;52.964;10.540;2023-03-25T04:13:48;7.30;99.90
16102;DHT22;56411;52.964;10.540;2023-03-25T04:16:18;7.40;99.90
16102;DHT22;56411;52.964;10.540;2023-03-25T04:18:45;7.40;99.90
16102;DHT22;56411;52.964;10.540;2023-03-25T04:21:12;7.40;99.90
16102;DHT22;56411;52.964;10.540;2023-03-25T04:23:39;7.40;99.90
16102;DHT22;56411;52.964;10.540;2023-03-25T04:26:08;7.40;99.90
16102;DHT22;56411;52.964;10.540;2023-03-25T04:28:36;7.40;99.90
16102;DHT22;56411;52.964;10.540;2023-03-25T04:31:10;7.50;99.90
16102;DHT22;56411;52.964;10.540;2023-03-25T04:33:40;7.50;99.90
16102;DHT22;56411;52.964;10.540;2023-03-25T04:36:12;7.40;99.90
16102;DHT22;56411;52.964;10.540;2023-03-25T04:38:40;7.40;99.90
16102;DHT22;56411;52.964;10.540;2023-03-25T04:41:10;7.40;99.90
16102;DHT22;56411;52.964;10.540;2023-03-25T04:43:39;7.40;99.90
16102;DHT22;56411;52.964;10.540;2023-03-25T04:46:12;7.40;99.90
16102;DHT22;56411;52.964;10.540;2023-03-25T04:48:40;7.40;99.90
16102;DHT22;56411;52.964;10.540;2023-03-25T04:51:10;7.40;99.90
16102;DHT22;56411;52.964;10.540;2023-03-25T04:53:38;7.40;99.90
16102;DHT22;56411;52.964;10.540;2023-03-25T04:56:07;7.40;99.90
16102;DHT22;56411;52.964;10.540;2023-03-25T04:58:42;7.40;99.90
16102;DHT22;56411;52.964;10.540;2023-03-25T05:01:18;7.50;99.90
16102;DHT22;56411;52.964;10.540;2023-03-25T05:03:46;7.50;99.90
16102;DHT22;56411;52.964;10.540;2023-03-25T05:06:15;7.60;99.90
16102;DHT22;56411;52.964;10.540;2023-03-25T05:08:42;7.60;99.90
16102;DHT22;56411;52.964;10.540;2023-03-25T05:11:09;7.70;99.90
16102;DHT22;56411;52.964;10.540;2023-03-25T05:13:36;7.70;99.90
16102;DHT22;56411;52.964;10.540;2023-03-25T05:16:06;7.70;99.90
16102;DHT22;56411;52.964;10.540;2023-03-25T05:18:33;7.60;99.90
16102;DHT22;56411;52.964;10.540;2023-03-25T05:21:01;7.60;99.90
16102;DHT22;56411;52.964;10.540;2023-03-25T05:23:29;7.60;99.90
16102;DHT22;56411;52.964;10.540;2023-03-25T05:25:56;7.60;99.90
16102;DHT22;56411;52.964;10.540;2023-03-25T05:28:24;7.60;99.90
16102;DHT22;56411;52.964;10.540;2023-03-25T05:30:51;7.60;99.90
16102;DHT22;56411;52.964;10.540;2023-03-25T05:33:21;7.60;99.90
16102;DHT22;56411;52.964;10.540;2023-03-25T05:35:48;7.60;99.90
16102;DHT22;56411;52.964;10.540;2023-03-25T05:38:16;7.60;99.90
16102;DHT22;56411;52.964;10.540;2023-03-25T05:40:44;7.60;99.90
16102;DHT22;56411;52.964;10.540;2023-03-25T05:43:12;7.70;99.90
16102;DHT22;56411;52.964;10.540;2023-03-25T05:45:40;7.70;99.90
16102;DHT22;56411;52.964;10.540;2023-03-25T05:48:09;7.70;99.90
16102;DHT22;56411;52.964;10.540;2023-03-25T05:50:39;7.70;99.90
16102;DHT22;56411;52.964;10.540;2023-03-25T05:53:08;7.70;99.90
16102;DHT22;56411;52.964;10.540;2023-03-25T05:55:37;7.80;99.90
16102;DHT22;56411;52.964;10.540;2023-03-25T05:58:04;7.80;99.90
16102;DHT22;56411;52.964;10.540;2023-03-25T06:00:33;7.90;99.90
16102;DHT22;56411;52.964;10.540;2023-03-25T06:03:00;7.90;99.90
16102;DHT22;56411;52.964;10.540;2023-03-25T06:05:27;7.90;99.90
16102;DHT22;56411;52.964;10.540;2023-03-25T06:07:56;7.90;99.90
16102;DHT22;56411;52.964;10.540;2023-03-25T06:10:23;7.90;99.90
16102;DHT22;56411;52.964;10.540;2023-03-25T06:12:50;8.00;99.90
16102;DHT22;56411;52.964;10.540;2023-03-25T06:15:19;7.90;99.90
16102;DHT22;56411;52.964;10.540;2023-03-25T06:17:53;7.90;99.90
16102;DHT22;56411;52.964;10.540;2023-03-25T06:20:20;7.90;99.90
16102;DHT22;56411;52.964;10.540;2023-03-25T06:22:48;7.90;99.90
16102;DHT22;56411;52.964;10.540;2023-03-25T06:25:18;7.90;99.90
16102;DHT22;56411;52.964;10.540;2023-03-25T06:27:47;7.90;99.90
16102;DHT22;56411;52.964;10.540;2023-03-25T06:30:16;8.00;99.90
16102;DHT22;56411;52.964;10.540;2023-03-25T06:32:43;8.10;99.90
16102;DHT22;56411;52.964;10.540;2023-03-25T06:35:16;8.30;99.90
16102;DHT22;56411;52.964;10.540;2023-03-25T06:37:44;8.40;99.90
16102;DHT22;56411;52.964;10.540;2023-03-25T06:40:12;8.50;99.90
16102;DHT22;56411;52.964;10.540;2023-03-25T06:42:41;8.50;99.90
16102;DHT22;56411;52.964;10.540;2023-03-25T06:45:09;8.60;99.90
16102;DHT22;56411;52.964;10.540;2023-03-25T06:47:37;8.70;99.90
16102;DHT22;56411;52.964;10.540;2023-03-25T06:50:06;8.70;99.90
16102;DHT22;56411;52.964;10.540;2023-03-25T06:52:34;8.60;99.90
16102;DHT22;56411;52.964;10.540;2023-03-25T06:55:02;8.70;99.90
16102;DHT22;56411;52.964;10.540;2023-03-25T06:57:29;8.60;99.90
16102;DHT22;56411;52.964;10.540;2023-03-25T06:59:58;8.60;99.90
16102;DHT22;56411;52.964;10.540;2023-03-25T07:02:25;8.50;99.90
16102;DHT22;56411;52.964;10.540;2023-03-25T07:04:52;8.50;99.90
16102;DHT22;56411;52.964;10.540;2023-03-25T07:07:19;8.50;99.90
16102;DHT22;56411;52.964;10.540;2023-03-25T07:09:50;8.50;99.90
16102;DHT22;56411;52.964;10.540;2023-03-25T07:12:19;8.60;99.90
16102;DHT22;56411;52.964;10.540;2023-03-25T07:14:50;8.70;99.90
16102;DHT22;56411;52.964;10.540;2023-03-25T07:17:20;8.80;99.90
16102;DHT22;56411;52.964;10.540;2023-03-25T07:19:47;8.90;99.90
16102;DHT22;56411;52.964;10.540;2023-03-25T07:22:14;8.80;99.90
16102;DHT22;56411;52.964;10.540;2023-03-25T07:24:42;8.80;99.90
16102;DHT22;56411;52.964;10.540;2023-03-25T07:27:10;8.90;99.90
16102;DHT22;56411;52.964;10.540;2023-03-25T07:29:37;9.10;99.90
16102;DHT22;56411;52.964;10.540;2023-03-25T07:32:05;9.10;99.90
16102;DHT22;56411;52.964;10.540;2023-03-25T07:34:34;9.00;99.90
16102;DHT22;56411;52.964;10.540;2023-03-25T07:37:01;9.10;99.90
16102;DHT22;56411;52.964;10.540;2023-03-25T07:39:28;9.10;99.90
16102;DHT22;56411;52.964;10.540;2023-03-25T07:41:55;9.00;99.90
16102;DHT22;56411;52.964;10.540;2023-03-25T07:44:23;8.60;99.90
16102;DHT22;56411;52.964;10.540;2023-03-25T07:46:50;8.40;99.90
16102;DHT22;56411;52.964;10.540;2023-03-25T07:49:18;8.30;99.90
16102;DHT22;56411;52.964;10.540;2023-03-25T07:51:50;8.30;99.90
16102;DHT22;56411;52.964;10.540;2023-03-25T07:54:17;8.40;99.90
16102;DHT22;56411;52.964;10.540;2023-03-25T07:56:46;8.40;99.90
16102;DHT22;56411;52.964;10.540;2023-03-25T07:59:14;8.50;99.90
16102;DHT22;56411;52.964;10.540;2023-03-25T08:01:41;8.70;99.90
16102;DHT22;56411;52.964;10.540;2023-03-25T08:04:09;8.70;99.90
16102;DHT22;56411;52.964;10.540;2023-03-25T08:06:40;8.80;99.90
16102;DHT22;56411;52.964;10.540;2023-03-25T08:09:09;8.90;99.90
16102;DHT22;56411;52.964;10.540;2023-03-25T08:11:36;8.90;99.90
16102;DHT22;56411;52.964;10.540;2023-03-25T08:14:05;9.10;99.90
16102;DHT22;56411;52.964;10.540;2023-03-25T08:16:32;9.20;99.90
16102;DHT22;56411;52.964;10.540;2023-03-25T08:19:00;9.30;99.90
16102;DHT22;56411;52.964;10.540;2023-03-25T08:21:27;9.10;99.90
16102;DHT22;56411;52.964;10.540;2023-03-25T08:23:55;9.00;99.90
16102;DHT22;56411;52.964;10.540;2023-03-25T08:26:28;9.00;99.90
16102;DHT22;56411;52.964;10.540;2023-03-25T08:28:57;9.00;99.90
16102;DHT22;56411;52.964;10.540;2023-03-25T08:31:24;8.70;99.90
16102;DHT22;56411;52.964;10.540;2023-03-25T08:33:55;8.60;99.90
16102;DHT22;56411;52.964;10.540;2023-03-25T08:36:22;8.60;99.90
16102;DHT22;56411;52.964;10.540;2023-03-25T08:38:49;8.60;99.90
16102;DHT22;56411;52.964;10.540;2023-03-25T08:41:18;8.40;99.90
16102;DHT22;56411;52.964;10.540;2023-03-25T08:43:47;8.40;99.90
16102;DHT22;56411;52.964;10.540;2023-03-25T08:46:15;8.40;99.90
16102;DHT22;56411;52.964;10.540;2023-03-25T08:48:42;8.30;99.90
16102;DHT22;56411;52.964;10.540;2023-03-25T08:51:10;8.30;99.90
16102;DHT22;56411;52.964;10.540;2023-03-25T08:53:37;8.30;99.90
16102;DHT22;56411;52.964;10.540;2023-03-25T08:56:05;8.40;99.90
16102;DHT22;56411;52.964;10.540;2023-03-25T08:58:33;8.50;99.90
16102;DHT22;56411;52.964;10.540;2023-03-25T09:01:01;8.50;99.90
16102;DHT22;56411;52.964;10.540;2023-03-25T09:03:30;8.70;99.90
16102;DHT22;56411;52.964;10.540;2023-03-25T09:05:57;8.90;99.90
16102;DHT22;56411;52.964;10.540;2023-03-25T09:08:24;9.00;99.90
16102;DHT22;56411;52.964;10.540;2023-03-25T09:10:53;9.20;99.90
16102;DHT22;56411;52.964;10.540;2023-03-25T09:13:21;9.30;99.90
16102;DHT22;56411;52.964;10.540;2023-03-25T09:15:48;9.50;99.90
16102;DHT22;56411;52.964;10.540;2023-03-25T09:18:17;9.80;99.90
16102;DHT22;56411;52.964;10.540;2023-03-25T09:20:44;9.80;99.90
16102;DHT22;56411;52.964;10.540;2023-03-25T09:23:13;9.70;99.90
16102;DHT22;56411;52.964;10.540;2023-03-25T09:25:40;9.60;99.90
16102;DHT22;56411;52.964;10.540;2023-03-25T09:28:07;9.50;99.90
16102;DHT22;56411;52.964;10.540;2023-03-25T09:30:35;9.50;99.90
16102;DHT22;56411;52.964;10.540;2023-03-25T09:33:02;9.60;99.90
16102;DHT22;56411;52.964;10.540;2023-03-25T09:35:31;9.60;99.90
16102;DHT22;56411;52.964;10.540;2023-03-25T09:37:58;9.60;99.90
16102;DHT22;56411;52.964;10.540;2023-03-25T09:40:25;9.60;99.90
16102;DHT22;56411;52.964;10.540;2023-03-25T09:43:02;9.70;99.90
16102;DHT22;56411;52.964;10.540;2023-03-25T09:45:35;9.50;99.90
16102;DHT22;56411;52.964;10.540;2023-03-25T09:48:17;9.40;99.90
16102;DHT22;56411;52.964;10.540;2023-03-25T09:50:48;9.50;99.90
16102;DHT22;56411;52.964;10.540;2023-03-25T09:53:24;9.60;99.90
16102;DHT22;56411;52.964;10.540;2023-03-25T09:55:52;9.60;99.90
16102;DHT22;56411;52.964;10.540;2023-03-25T09:58:26;9.70;99.90
16102;DHT22;56411;52.964;10.540;2023-03-25T10:00:56;9.90;99.90
16102;DHT22;56411;52.964;10.540;2023-03-25T10:03:28;9.90;99.90
16102;DHT22;56411;52.964;10.540;2023-03-25T10:06:12;10.20;99.90
16102;DHT22;56411;52.964;10.540;2023-03-25T10:11:50;10.20;99.90
16102;DHT22;56411;52.964;10.540;2023-03-25T10:14:26;10.40;99.90
16102;DHT22;56411;52.964;10.540;2023-03-25T10:17:05;10.90;99.90
16102;DHT22;56411;52.964;10.540;2023-03-25T10:19:57;11.00;99.90
16102;DHT22;56411;52.964;10.540;2023-03-25T10:22:36;10.50;99.90
16102;DHT22;56411;52.964;10.540;2023-03-25T10:25:13;10.00;99.90
16102;DHT22;56411;52.964;10.540;2023-03-25T10:27:44;9.10;99.90
16102;DHT22;56411;52.964;10.540;2023-03-25T10:30:13;8.60;99.90
16102;DHT22;56411;52.964;10.540;2023-03-25T10:32:45;8.10;99.90
16102;DHT22;56411;52.964;10.540;2023-03-25T10:35:16;7.80;99.90
16102;DHT22;56411;52.964;10.540;2023-03-25T10:37:48;7.60;99.90
16102;DHT22;56411;52.964;10.540;2023-03-25T10:40:22;7.40;99.90
16102;DHT22;56411;52.964;10.540;2023-03-25T10:43:10;7.20;99.90
16102;DHT22;56411;52.964;10.540;2023-03-25T10:45:40;7.10;99.90
16102;DHT22;56411;52.964;10.540;2023-03-25T10:48:11;6.90;99.90
16102;DHT22;56411;52.964;10.540;2023-03-25T10:50:39;6.80;99.90
16102;DHT22;56411;52.964;10.540;2023-03-25T10:53:17;6.80;99.90
16102;DHT22;56411;52.964;10.540;2023-03-25T10:55:50;6.80;99.90
16102;DHT22;56411;52.964;10.540;2023-03-25T10:58:21;7.00;99.90
16102;DHT22;56411;52.964;10.540;2023-03-25T11:00:49;7.10;99.90
16102;DHT22;56411;52.964;10.540;2023-03-25T11:03:19;7.10;99.90
16102;DHT22;56411;52.964;10.540;2023-03-25T11:05:48;7.10;99.90
16102;DHT22;56411;52.964;10.540;2023-03-25T11:08:17;7.10;99.90
16102;DHT22;56411;52.964;10.540;2023-03-25T11:10:47;7.10;99.90
16102;DHT22;56411;52.964;10.540;2023-03-25T11:13:16;7.20;99.90
16102;DHT22;56411;52.964;10.540;2023-03-25T11:15:47;7.30;99.90
16102;DHT22;56411;52.964;10.540;2023-03-25T11:18:20;7.40;99.90
16102;DHT22;56411;52.964;10.540;2023-03-25T11:20:49;7.90;99.90
16102;DHT22;56411;52.964;10.540;2023-03-25T11:23:24;8.70;99.90
16102;DHT22;56411;52.964;10.540;2023-03-25T11:25:54;9.40;99.90
16102;DHT22;56411;52.964;10.540;2023-03-25T11:28:30;9.70;99.90
16102;DHT22;56411;52.964;10.540;2023-03-25T11:31:21;10.00;99.90
16102;DHT22;56411;52.964;10.540;2023-03-25T11:34:03;10.00;99.90
16102;DHT22;56411;52.964;10.540;2023-03-25T11:36:36;10.30;99.90
16102;DHT22;56411;52.964;10.540;2023-03-25T11:39:15;10.70;99.90
16102;DHT22;56411;52.964;10.540;2023-03-25T11:41:43;10.90;99.90
16102;DHT22;56411;52.964;10.540;2023-03-25T11:44:20;10.50;99.90
16102;DHT22;56411;52.964;10.540;2023-03-25T11:46:51;10.30;99.90
16102;DHT22;56411;52.964;10.540;2023-03-25T11:49:22;10.50;99.90
16102;DHT22;56411;52.964;10.540;2023-03-25T11:51:56;10.60;99.90
16102;DHT22;56411;52.964;10.540;2023-03-25T11:54:31;10.30;99.90
16102;DHT22;56411;52.964;10.540;2023-03-25T11:56:58;10.30;99.90
16102;DHT22;56411;52.964;10.540;2023-03-25T11:59:36;10.80;99.90
16102;DHT22;56411;52.964;10.540;2023-03-25T12:02:19;10.80;99.90
16102;DHT22;56411;52.964;10.540;2023-03-25T12:04:55;10.60;99.90
16102;DHT22;56411;52.964;10.540;2023-03-25T12:07:22;10.40;99.90
16102;DHT22;56411;52.964;10.540;2023-03-25T12:09:55;10.30;99.90
16102;DHT22;56411;52.964;10.540;2023-03-25T12:12:36;10.20;99.90
16102;DHT22;56411;52.964;10.540;2023-03-25T12:15:17;10.60;99.90
16102;DHT22;56411;52.964;10.540;2023-03-25T12:17:54;10.90;99.90
16102;DHT22;56411;52.964;10.540;2023-03-25T12:20:29;10.90;99.90
16102;DHT22;56411;52.964;10.540;2023-03-25T12:23:01;10.70;99.90
16102;DHT22;56411;52.964;10.540;2023-03-25T12:25:45;10.40;99.90
16102;DHT22;56411;52.964;10.540;2023-03-25T12:28:46;10.30;99.90
16102;DHT22;56411;52.964;10.540;2023-03-25T12:31:26;10.60;99.90
16102;DHT22;56411;52.964;10.540;2023-03-25T12:34:05;11.50;99.90
16102;DHT22;56411;52.964;10.540;2023-03-25T12:36:48;11.30;99.90
16102;DHT22;56411;52.964;10.540;2023-03-25T12:39:28;10.60;99.90
16102;DHT22;56411;52.964;10.540;2023-03-25T12:42:05;10.50;99.90
16102;DHT22;56411;52.964;10.540;2023-03-25T12:44:47;10.40;99.90
16102;DHT22;56411;52.964;10.540;2023-03-25T12:47:22;10.30;99.90
16102;DHT22;56411;52.964;10.540;2023-03-25T12:50:08;10.50;99.90
16102;DHT22;56411;52.964;10.540;2023-03-25T12:52:48;10.90;99.90
16102;DHT22;56411;52.964;10.540;2023-03-25T12:55:38;11.80;99.90
16102;DHT22;56411;52.964;10.540;2023-03-25T12:58:29;12.70;99.90
16102;DHT22;56411;52.964;10.540;2023-03-25T13:01:08;13.10;99.90
16102;DHT22;56411;52.964;10.540;2023-03-25T13:04:11;13.10;99.90
16102;DHT22;56411;52.964;10.540;2023-03-25T13:06:45;12.90;99.90
16102;DHT22;56411;52.964;10.540;2023-03-25T13:09:19;12.40;99.90
16102;DHT22;56411;52.964;10.540;2023-03-25T13:11:49;11.70;99.90
16102;DHT22;56411;52.964;10.540;2023-03-25T13:14:24;11.10;99.90
16102;DHT22;56411;52.964;10.540;2023-03-25T13:16:54;11.00;99.90
16102;DHT22;56411;52.964;10.540;2023-03-25T13:19:26;10.80;99.90
16102;DHT22;56411;52.964;10.540;2023-03-25T13:21:57;10.90;99.90
16102;DHT22;56411;52.964;10.540;2023-03-25T13:24:34;11.10;99.90
16102;DHT22;56411;52.964;10.540;2023-03-25T13:27:09;11.10;99.90
16102;DHT22;56411;52.964;10.540;2023-03-25T13:29:48;11.70;99.90
16102;DHT22;56411;52.964;10.540;2023-03-25T13:32:19;11.60;99.90
16102;DHT22;56411;52.964;10.540;2023-03-25T13:34:51;11.20;99.90
16102;DHT22;56411;52.964;10.540;2023-03-25T13:37:23;10.80;99.90
16102;DHT22;56411;52.964;10.540;2023-03-25T13:40:02;10.60;99.90
16102;DHT22;56411;52.964;10.540;2023-03-25T13:42:43;10.10;99.90
16102;DHT22;56411;52.964;10.540;2023-03-25T13:45:17;9.60;99.90
16102;DHT22;56411;52.964;10.540;2023-03-25T13:47:47;9.30;99.90
16102;DHT22;56411;52.964;10.540;2023-03-25T13:50:24;9.00;99.90
16102;DHT22;56411;52.964;10.540;2023-03-25T13:52:56;9.00;99.90
16102;DHT22;56411;52.964;10.540;2023-03-25T13:55:28;8.90;99.90
16102;DHT22;56411;52.964;10.540;2023-03-25T13:58:32;8.90;99.90
16102;DHT22;56411;52.964;10.540;2023-03-25T14:01:22;8.90;99.90
16102;DHT22;56411;52.964;10.540;2023-03-25T14:04:23;8.90;99.90
16102;DHT22;56411;52.964;10.540;2023-03-25T14:10:48;9.30;99.90
16102;DHT22;56411;52.964;10.540;2023-03-25T14:13:42;9.30;99.90
16102;DHT22;56411;52.964;10.540;2023-03-25T14:17:22;9.30;99.90
16102;DHT22;56411;52.964;10.540;2023-03-25T14:19:56;9.30;99.90
16102;DHT22;56411;52.964;10.540;2023-03-25T14:23:06;9.30;99.90
16102;DHT22;56411;52.964;10.540;2023-03-25T14:29:23;9.30;99.90
16102;DHT22;56411;52.964;10.540;2023-03-25T14:38:51;9.40;99.90
16102;DHT22;56411;52.964;10.540;2023-03-25T14:44:24;9.60;99.90
16102;DHT22;56411;52.964;10.540;2023-03-25T14:47:00;9.50;99.90
16102;DHT22;56411;52.964;10.540;2023-03-25T14:49:47;9.40;99.90
16102;DHT22;56411;52.964;10.540;2023-03-25T14:52:25;9.30;99.90
16102;DHT22;56411;52.964;10.540;2023-03-25T14:55:06;9.20;99.90
16102;DHT22;56411;52.964;10.540;2023-03-25T14:57:41;9.10;99.90
16102;DHT22;56411;52.964;10.540;2023-03-25T15:00:17;8.90;99.90
16102;DHT22;56411;52.964;10.540;2023-03-25T15:02:50;8.70;99.90
16102;DHT22;56411;52.964;10.540;2023-03-25T15:05:23;8.50;99.90
16102;DHT22;56411;52.964;10.540;2023-03-25T15:07:53;8.40;99.90
16102;DHT22;56411;52.964;10.540;2023-03-25T15:10:29;8.40;99.90
16102;DHT22;56411;52.964;10.540;2023-03-25T15:13:02;8.40;99.90
16102;DHT22;56411;52.964;10.540;2023-03-25T15:15:32;8.40;99.90
16102;DHT22;56411;52.964;10.540;2023-03-25T15:21:22;8.50;99.90
16102;DHT22;56411;52.964;10.540;2023-03-25T15:23:51;8.50;99.90
16102;DHT22;56411;52.964;10.540;2023-03-25T15:26:26;8.50;99.90
16102;DHT22;56411;52.964;10.540;2023-03-25T15:29:07;8.60;99.90
16102;DHT22;56411;52.964;10.540;2023-03-25T15:31:44;8.70;99.90
16102;DHT22;56411;52.964;10.540;2023-03-25T15:37:50;9.00;99.90
16102;DHT22;56411;52.964;10.540;2023-03-25T15:40:29;9.20;99.90
16102;DHT22;56411;52.964;10.540;2023-03-25T15:46:54;9.60;99.90
16102;DHT22;56411;52.964;10.540;2023-03-25T15:49:45;9.70;99.90
16102;DHT22;56411;52.964;10.540;2023-03-25T15:52:36;9.60;99.90
16102;DHT22;56411;52.964;10.540;2023-03-25T15:55:07;9.50;99.90
16102;DHT22;56411;52.964;10.540;2023-03-25T15:57:38;9.90;99.90
16102;DHT22;56411;52.964;10.540;2023-03-25T16:00:12;10.40;99.90
16102;DHT22;56411;52.964;10.540;2023-03-25T16:02:46;10.10;99.90
16102;DHT22;56411;52.964;10.540;2023-03-25T16:05:15;10.10;99.90
16102;DHT22;56411;52.964;10.540;2023-03-25T16:07:43;10.50;99.90
16102;DHT22;56411;52.964;10.540;2023-03-25T16:10:14;10.30;99.90
16102;DHT22;56411;52.964;10.540;2023-03-25T16:12:45;9.90;99.90
16102;DHT22;56411;52.964;10.540;2023-03-25T16:15:14;9.60;99.90
16102;DHT22;56411;52.964;10.540;2023-03-25T16:17:44;9.50;99.90
16102;DHT22;56411;52.964;10.540;2023-03-25T16:20:14;9.30;99.90
16102;DHT22;56411;52.964;10.540;2023-03-25T16:22:47;9.20;99.90
16102;DHT22;56411;52.964;10.540;2023-03-25T16:25:18;9.10;99.90
16102;DHT22;56411;52.964;10.540;2023-03-25T16:27:50;9.10;99.90
16102;DHT22;56411;52.964;10.540;2023-03-25T16:30:23;9.10;99.90
16102;DHT22;56411;52.964;10.540;2023-03-25T16:33:14;9.00;99.90
16102;DHT22;56411;52.964;10.540;2023-03-25T16:35:43;9.00;99.90
16102;DHT22;56411;52.964;10.540;2023-03-25T16:38:13;9.00;99.90